Time,TemperatureF,DewpointF,PressureIn,WindDirection,WindDirectionDegrees,WindSpeedMPH,WindSpeedGustMPH,Humidity,HourlyPrecipIn,Conditions,Clouds,dailyrainin,SoftwareType,DateUTC
2015-04-19 00:01:00,60.0,57.0,-100.00,North,-9999,-999.9,-999.0,90,-99.99,,,-99.99,,2015-04-19 05:01:00,
2015-04-19 00:21:00,60.0,57.0,-100.00,North,-9999,-999.9,-999.0,89,-99.99,,,-99.99,,2015-04-19 05:21:00,
2015-04-19 00:31:00,62.0,57.0,-100.00,North,-9999,-999.9,-999.0,84,-99.99,,,-99.99,,2015-04-19 05:31:00,
2015-04-19 00:51:00,61.0,57.0,-100.00,North,-9999,-999.9,-999.0,86,-99.99,,,-99.99,,2015-04-19 05:51:00,
2015-04-19 01:01:00,63.0,60.0,-100.00,North,-9999,-999.9,-999.0,87,-99.99,,,-99.99,,2015-04-19 06:01:00,
2015-04-19 01:21:00,63.0,60.0,-100.00,North,-9999,-999.9,-999.0,87,-99.99,,,-99.99,,2015-04-19 06:21:00,
2015-04-19 01:31:00,63.0,60.0,-100.00,North,-9999,-999.9,-999.0,90,-99.99,,,-99.99,,2015-04-19 06:31:00,
2015-04-19 01:51:00,64.0,61.0,-100.00,North,-9999,-999.9,-999.0,92,-99.99,,,-99.99,,2015-04-19 06:51:00,
2015-04-19 02:01:00,64.0,62.0,-100.00,North,-9999,-999.9,-999.0,95,-99.99,,,-99.99,,2015-04-19 07:01:00,
2015-04-19 02:21:00,64.0,63.0,-100.00,North,-9999,-999.9,-999.0,96,-99.99,,,-99.99,,2015-04-19 07:21:00,
2015-04-19 02:31:00,64.0,63.0,-100.00,North,-9999,-999.9,-999.0,96,-99.99,,,-99.99,,2015-04-19 07:31:00,
2015-04-19 02:51:00,64.0,63.0,-100.00,North,-9999,-999.9,-999.0,96,-99.99,,,-99.99,,2015-04-19 07:51:00,
2015-04-19 03:01:00,63.0,62.0,-100.00,North,-9999,-999.9,-999.0,95,-99.99,,,-99.99,,2015-04-19 08:01:00,
2015-04-19 03:21:00,58.0,57.0,-100.00,North,-9999,-999.9,-999.0,95,-99.99,,,-99.99,,2015-04-19 08:21:00,
2015-04-19 03:31:00,58.0,57.0,-100.00,North,-9999,-999.9,-999.0,96,-99.99,,,-99.99,,2015-04-19 08:31:00,
2015-04-19 03:51:00,58.0,57.0,-100.00,North,-9999,-999.9,-999.0,97,-99.99,,,-99.99,,2015-04-19 08:51:00,
2015-04-19 04:01:00,58.0,57.0,-100.00,North,-9999,-999.9,-999.0,97,-99.99,,,-99.99,,2015-04-19 09:01:00,
2015-04-19 04:21:00,58.0,57.0,-100.00,North,-9999,-999.9,-999.0,98,-99.99,,,-99.99,,2015-04-19 09:21:00,
2015-04-19 04:31:00,58.0,58.0,-100.00,North,-9999,-999.9,-999.0,99,-99.99,,,-99.99,,2015-04-19 09:31:00,
2015-04-19 04:51:00,58.0,58.0,-100.00,North,-9999,-999.9,-999.0,100,-99.99,,,-99.99,,2015-04-19 09:51:00,
2015-04-19 05:01:00,58.0,58.0,-100.00,North,-9999,-999.9,-999.0,100,-99.99,,,-99.99,,2015-04-19 10:01:00,
2015-04-19 05:21:00,59.0,59.0,-100.00,North,-9999,-999.9,-999.0,100,-99.99,,,-99.99,,2015-04-19 10:21:00,
2015-04-19 05:31:00,61.0,61.0,-100.00,North,-9999,-999.9,-999.0,100,-99.99,,,-99.99,,2015-04-19 10:31:00,
2015-04-19 05:41:00,61.0,61.0,-100.00,North,-9999,-999.9,-999.0,100,-99.99,,,-99.99,,2015-04-19 10:41:00,
2015-04-19 05:51:00,63.0,62.0,-100.00,North,-9999,-999.9,-999.0,96,-99.99,,,-99.99,,2015-04-19 10:51:00,
2015-04-19 06:01:00,63.0,61.0,-100.00,North,-9999,-999.9,-999.0,94,-99.99,,,-99.99,,2015-04-19 11:01:00,
2015-04-19 06:21:00,63.0,61.0,-100.00,North,-9999,-999.9,-999.0,93,-99.99,,,-99.99,,2015-04-19 11:21:00,
2015-04-19 06:31:00,63.0,61.0,-100.00,North,-9999,-999.9,-999.0,93,-99.99,,,-99.99,,2015-04-19 11:31:00,
2015-04-19 06:42:00,63.0,61.0,-100.00,North,-9999,-999.9,-999.0,93,-99.99,,,-99.99,,2015-04-19 11:42:00,
2015-04-19 06:51:00,63.0,61.0,-100.00,North,-9999,-999.9,-999.0,92,-99.99,,,-99.99,,2015-04-19 11:51:00,
2015-04-19 07:01:00,63.0,61.0,-100.00,North,-9999,-999.9,-999.0,93,-99.99,,,-99.99,,2015-04-19 12:01:00,
2015-04-19 07:21:00,63.0,61.0,-100.00,North,-9999,-999.9,-999.0,93,-99.99,,,-99.99,,2015-04-19 12:21:00,
2015-04-19 07:31:00,63.0,61.0,-100.00,North,-9999,-999.9,-999.0,92,-99.99,,,-99.99,,2015-04-19 12:31:00,
2015-04-19 07:42:00,63.0,61.0,-100.00,North,-9999,-999.9,-999.0,92,-99.99,,,-99.99,,2015-04-19 12:42:00,
2015-04-19 07:51:00,63.0,61.0,-100.00,North,-9999,-999.9,-999.0,92,-99.99,,,-99.99,,2015-04-19 12:51:00,
2015-04-19 08:01:00,63.0,61.0,-100.00,North,-9999,-999.9,-999.0,91,-99.99,,,-99.99,,2015-04-19 13:01:00,
2015-04-19 08:11:00,63.0,61.0,-100.00,North,-9999,-999.9,-999.0,91,-99.99,,,-99.99,,2015-04-19 13:11:00,
2015-04-19 08:21:00,64.0,61.0,-100.00,North,-9999,-999.9,-999.0,89,-99.99,,,-99.99,,2015-04-19 13:21:00,
2015-04-19 08:31:00,65.0,61.0,-100.00,North,-9999,-999.9,-999.0,87,-99.99,,,-99.99,,2015-04-19 13:31:00,
2015-04-19 08:51:00,65.0,62.0,-100.00,North,-9999,-999.9,-999.0,87,-99.99,,,-99.99,,2015-04-19 13:51:00,
2015-04-19 09:01:00,66.0,61.0,-100.00,North,-9999,-999.9,-999.0,85,-99.99,,,-99.99,,2015-04-19 14:01:00,
2015-04-19 09:11:00,66.0,61.0,-100.00,North,-9999,-999.9,-999.0,85,-99.99,,,-99.99,,2015-04-19 14:11:00,
2015-04-19 09:21:00,67.0,62.0,-100.00,North,-9999,-999.9,-999.0,82,-99.99,,,-99.99,,2015-04-19 14:21:00,
2015-04-19 09:31:00,69.0,63.0,-100.00,North,-9999,-999.9,-999.0,81,-99.99,,,-99.99,,2015-04-19 14:31:00,
2015-04-19 09:51:00,69.0,63.0,-100.00,North,-9999,-999.9,-999.0,79,-99.99,,,-99.99,,2015-04-19 14:51:00,